»·PEaware :: N1399 KPDX-KBFI

N1399 :: KPDX-KBFI

FLIGHT INFORMATION

Flight Status: Arrived
Operator: Privately registered:
United States
More flights under this callsign
Pilot: David C. (16084)
Aircraft: BEECH AIRCRAFT SUPER KING AIR 350
(B350)
More flights by this aircraft type
Origin: KPDX Portland Intl
United States
Destination: KBFI Boeing Field/King Co Intl
United States
More flights between these airports :: More routes between these airports
Route: PTLD1 BTG OLM2
File this flight plan on PilotEdge
Remarks:
Altitude:
(Current/Filed)
18,000ft
Speed:
(Current/Filed)
314kts
Departed: 19-Jul-20 05:45 PM
Arrived: 19-Jul-20 06:21 PM
Distance/Time
Traveled:
118nm/0:35
Distance/Time
To Go:
Arrived

Flight Plot

Page will automatically refresh every two minutes.


Map Options




Map Legend


Flown Route
Filed Route
Departure Airport
Arrival Airport
Navaid (VOR, NDB)
Fix

Horizontal Profiles

Position Reports

Time Latitude Longitude Heading Altitude Ground
Speed
19-Jul-20 17:18 45.586460 -122.581211 208 27ft 0kts
19-Jul-20 17:19 45.586460 -122.581211 208 27ft 0kts
19-Jul-20 17:20 45.586460 -122.581211 208 27ft 0kts
19-Jul-20 17:21 45.586460 -122.581211 208 27ft 0kts
19-Jul-20 17:22 45.586460 -122.581211 208 27ft 0kts
19-Jul-20 17:23 45.586460 -122.581211 208 27ft 0kts
19-Jul-20 17:24 45.586460 -122.581211 208 27ft 0kts
19-Jul-20 17:25 45.586460 -122.581211 208 27ft 0kts
19-Jul-20 17:26 45.586460 -122.581211 208 27ft 0kts
19-Jul-20 17:27 45.586460 -122.581211 208 27ft 0kts
19-Jul-20 17:28 45.586460 -122.581211 208 27ft 0kts
19-Jul-20 17:29 45.586460 -122.581211 208 27ft 0kts
19-Jul-20 17:30 45.586460 -122.581211 208 27ft 0kts
19-Jul-20 17:31 45.586460 -122.581211 208 27ft 0kts
19-Jul-20 17:32 45.586460 -122.581211 208 27ft 0kts
19-Jul-20 17:33 45.586460 -122.581211 208 27ft 0kts
19-Jul-20 17:34 45.586460 -122.581211 208 27ft 0kts
19-Jul-20 17:35 45.586460 -122.581211 208 27ft 0kts
19-Jul-20 17:36 45.586460 -122.581211 208 27ft 0kts
19-Jul-20 17:37 45.586460 -122.581211 208 27ft 0kts
19-Jul-20 17:38 45.586460 -122.581211 208 27ft 0kts
19-Jul-20 17:39 45.586486 -122.581468 347 27ft 0kts
19-Jul-20 17:40 45.586209 -122.579082 103 27ft 11kts
19-Jul-20 17:41 45.585128 -122.574074 119 27ft 24kts
19-Jul-20 17:42 45.582784 -122.567779 93 27ft 8kts
19-Jul-20 17:43 45.582822 -122.567346 72 27ft 3kts
19-Jul-20 17:44 45.589743 -122.582588 299 155ft 129kts
19-Jul-20 17:45 45.609323 -122.630380 300 2206ft 143kts
19-Jul-20 17:46 45.642250 -122.642424 18 4353ft 154kts
19-Jul-20 17:47 45.682406 -122.621775 15 6527ft 155kts
19-Jul-20 17:48 45.727456 -122.601069 15 8186ft 184kts
19-Jul-20 17:49 45.778295 -122.599385 349 9947ft 188kts
19-Jul-20 17:50 45.830333 -122.612047 349 11753ft 191kts
19-Jul-20 17:51 45.882769 -122.625088 348 13498ft 192kts
19-Jul-20 17:52 45.935176 -122.638124 348 15205ft 192kts
19-Jul-20 17:53 45.987682 -122.651286 348 16871ft 192kts
19-Jul-20 17:54 46.041141 -122.664702 348 18084ft 217kts
19-Jul-20 17:55 46.108301 -122.681349 349 18089ft 268kts
19-Jul-20 17:56 46.184256 -122.700139 348 18080ft 290kts
19-Jul-20 17:57 46.265316 -122.720484 348 18076ft 300kts
19-Jul-20 17:58 46.347928 -122.741332 348 18075ft 304kts
19-Jul-20 17:59 46.431468 -122.762515 349 18074ft 305kts
19-Jul-20 18:00 46.515054 -122.783771 348 18073ft 306kts
19-Jul-20 18:01 46.598629 -122.805115 348 18073ft 306kts
19-Jul-20 18:02 46.679818 -122.825949 348 16900ft 286kts
19-Jul-20 18:03 46.755982 -122.845663 349 15377ft 272kts
19-Jul-20 18:04 46.829206 -122.864553 349 13868ft 264kts
19-Jul-20 18:05 46.900949 -122.883119 349 12368ft 264kts
19-Jul-20 18:06 46.972224 -122.891422 16 12002ft 254kts
19-Jul-20 18:07 47.030084 -122.827178 39 12004ft 271kts
19-Jul-20 18:08 47.084971 -122.756650 38 10875ft 241kts
19-Jul-20 18:09 47.133279 -122.695035 38 10008ft 235kts
19-Jul-20 18:10 47.184325 -122.629672 38 10004ft 249kts
19-Jul-20 18:11 47.234124 -122.564946 39 8855ft 221kts
19-Jul-20 18:12 47.279169 -122.505982 39 7372ft 227kts
19-Jul-20 18:13 47.329095 -122.441239 39 5929ft 248kts
19-Jul-20 18:14 47.377880 -122.377979 39 5002ft 204kts
19-Jul-20 18:15 47.415613 -122.323463 50 4672ft 179kts
19-Jul-20 18:16 47.441111 -122.273195 26 2836ft 147kts
19-Jul-20 18:17 47.478339 -122.258669 341 988ft 124kts
19-Jul-20 18:18 47.506367 -122.282436 328 375ft 110kts
19-Jul-20 18:19 47.527863 -122.300819 332 23ft 43kts
19-Jul-20 18:20 47.528961 -122.300648 59 23ft 2kts
19-Jul-20 18:21 47.531152 -122.300514 328 23ft 13kts
19-Jul-20 18:22 47.535354 -122.304009 329 23ft 16kts
19-Jul-20 18:24 47.537404 -122.304705 20 23ft 0kts
19-Jul-20 18:25 47.537405 -122.304705 20 23ft 0kts
19-Jul-20 18:26 47.537404 -122.304705 20 23ft 0kts

Navigation Log

Ident Type
Flight plan parsing failed, navigation log unavailable